• Join FlightAware (Why Join?)
  • Login
  • US Flag 
08:49PM EDT


 

Airport Tracker/Info


-or-


 

Live Flight TrackerFlight Track Log ✈ AWI3659 ✈ 05-Jul-2013 ✈ KCHO - KCLT

Flight Track Log - Related Links

Times and Time Zones

All times are in EDT time to prevent confusion due to time zone crossing. See the AWI3659 flight status page for this flight to view local times or setup timezone preferences in your user account.

Time Position Orientation Groundspeed Altitude Reporting Facility
EDT Latitude Longitude Course Direction KTS MPH feet Rate Location/Type
03:49PM 38.0967 -78.4836 218° Southwest 153 176 2,800  Level Washington Center
03:50PM 38.0664 -78.5300 230° Southwest 176 203 4,700 1,680 Climbing Washington Center
03:51PM 38.0475 -78.6136 254° West 212 244 6,200 2,040 Climbing Washington Center
03:52PM 37.9897 -78.6719 219° Southwest 228 262 8,800 2,520 Climbing Washington Center
03:53PM 37.9261 -78.7219 212° Southwest 256 295 11,300 2,640 Climbing Washington Center
03:54PM 37.8517 -78.7767 210° Southwest 280 322 14,200 2,400 Climbing Washington Center
03:55PM 37.6936 -78.8397 218° Southwest  Level FlightAware Approximate
03:55PM 37.7814 -78.8289 210° Southwest 285 328 16,200  Level Washington Center
03:56PM 37.7092 -78.8783 208° Southwest 297 342 17,800 1,560 Climbing Washington Center
03:57PM 37.6367 -78.9328 211° Southwest 302 348 19,400 1,680 Climbing Washington Center
03:58PM 37.5725 -78.9850 213° Southwest 302 348 21,200 1,260 Climbing Washington Center
03:59PM 37.5000 -79.0447 213° Southwest 307 353 22,000 360 Climbing Washington Center
04:00PM 37.4231 -79.1092 214° Southwest 319 367 22,000  Level Washington Center
04:01PM 37.3397 -79.1733 211° Southwest 338 389 22,000  Level Washington Center
04:02PM 37.2625 -79.2400 214° Southwest 344 396 22,000  Level Washington Center
04:03PM 37.1664 -79.3164 212° Southwest 360 414 22,000  Level Washington Center
04:04PM 37.0808 -79.3850 213° Southwest 370 426 22,000  Level Washington Center
04:05PM 36.9972 -79.4536 213° Southwest 370 426 22,000  Level Washington Center
04:06PM 36.9136 -79.5222 213° Southwest 370 426 22,000  Level Washington Center
04:07PM 36.8319 -79.5908 214° Southwest 379 436 22,000  Level Washington Center
04:09PM 36.6664 -79.7219 212° Southwest 389 448 22,000  Level Atlanta Center
04:10PM 36.5750 -79.7942 212° Southwest 394 453 22,000  Level Atlanta Center
04:11PM 36.4858 -79.8658 213° Southwest 394 453 22,000  Level Atlanta Center
04:12PM 36.3883 -79.9408 212° Southwest 389 448 22,000  Level Atlanta Center
04:13PM 36.3008 -80.0122 213° Southwest 384 442 22,000  Level Atlanta Center
04:14PM 36.2136 -80.0886 215° Southwest 384 442 22,000 -600 Level Atlanta Center
04:15PM 36.1367 -80.1539 214° Southwest 384 442 20,900 -1,680 Descending Atlanta Center
04:16PM 36.0533 -80.2247 215° Southwest 384 442 18,700 -2,160 Descending Atlanta Center
04:17PM 35.9822 -80.2922 218° Southwest 364 419 17,100 -2,160 Descending Atlanta Center
04:18PM 35.9111 -80.3519 214° Southwest 350 403 15,100 -2,100 Descending Atlanta Center
04:19PM 35.8339 -80.4169 214° Southwest 333 383 13,100 -1,140 Descending Atlanta Center
04:20PM 35.7606 -80.4764 213° Southwest 300 345 12,900 -840 Descending Atlanta Center
04:21PM 35.6950 -80.5253 211° Southwest 274 315 11,400 -1,560 Descending Atlanta Center
04:22PM 35.6317 -80.5717 211° Southwest 278 320 10,000 -1,920 Descending Atlanta Center
04:23PM 35.5703 -80.6125 208° Southwest 277 319 8,000 -2,040 Descending Atlanta Center
04:24PM 35.5047 -80.6533 207° Southwest 269 310 6,100 -1,080 Descending Atlanta Center
04:25PM 35.4433 -80.7019 213° Southwest 253 291 5,900 -660 Descending Atlanta Center
04:26PM 35.3800 -80.7453 209° Southwest 231 266 4,800 -1,020 Descending Atlanta Center